Terminal Aerodrome Forecast
Issued by NWS

Home | Current Version | Previous Version | Graphics & Text | Print | Product List | Glossary On
Versions: 1 2 3 4 5 6 7 8 9 10 11 12 13 14 15 16 17 18 19 20 21 22 23 24 25 26 27 28 29
000
FTUS43 KLOT 300837 AAA
TAFDPA
TAF AMD
KDPA 300837Z 3009/3106 04005KT 6SM BR VCSH FEW010 BKN025
      TEMPO 3010/3012 -SHRA BKN015
     FM301600 05010KT 6SM -SHRA VCTS SCT025 BKN035CB
      TEMPO 3016/3019 4SM SHRA OVC025
     FM302100 05010KT P6SM BKN040
     FM310200 03005KT 6SM BR SCT040=

USA.gov is the U.S. government's official web portal to all federal, state and local government web resources and services.